createdAt,value
2023-03-03T00:01:21.819Z,15.60
2023-03-03T00:03:48.608Z,16.23
2023-03-03T00:06:15.511Z,16.27
2023-03-03T00:08:43.024Z,16.57
2023-03-03T00:11:10.718Z,17.77
2023-03-03T00:13:51.172Z,17.53
2023-03-03T00:16:31.163Z,16.57
2023-03-03T00:18:58.648Z,16.37
2023-03-03T00:21:31.489Z,17.47
2023-03-03T00:24:23.210Z,19.40
2023-03-03T00:26:56.894Z,18.37
2023-03-03T00:29:51.071Z,16.63
2023-03-03T00:32:23.917Z,16.63
2023-03-03T00:34:53.823Z,18.10
2023-03-03T00:37:34.754Z,17.23
2023-03-03T00:40:24.055Z,17.03
2023-03-03T00:42:55.655Z,17.17
2023-03-03T00:45:38.242Z,18.40
2023-03-03T00:48:24.285Z,19.20
2023-03-03T00:50:54.320Z,17.40
2023-03-03T00:53:24.235Z,17.20
2023-03-03T00:55:52.817Z,17.47
2023-03-03T00:58:21.992Z,17.20
2023-03-03T01:00:56.539Z,17.73
2023-03-03T01:03:26.587Z,16.90
2023-03-03T01:05:54.490Z,17.57
2023-03-03T01:08:22.746Z,17.60
2023-03-03T01:10:54.450Z,18.23
2023-03-03T01:13:26.225Z,17.87
2023-03-03T01:15:54.098Z,18.67
2023-03-03T01:18:21.462Z,18.33
2023-03-03T01:20:48.298Z,19.73
2023-03-03T01:23:15.126Z,21.07
2023-03-03T01:25:42.139Z,19.60
2023-03-03T01:28:09.446Z,19.67
2023-03-03T01:30:36.495Z,20.03
2023-03-03T01:33:03.654Z,21.07
2023-03-03T01:35:30.912Z,21.47
2023-03-03T01:37:59.409Z,21.13
2023-03-03T01:40:30.782Z,20.57
2023-03-03T01:43:00.965Z,21.57
2023-03-03T01:45:53.286Z,20.33
2023-03-03T01:48:34.617Z,22.23
2023-03-03T01:51:05.259Z,20.60
2023-03-03T01:53:51.218Z,23.33
2023-03-03T01:56:18.656Z,23.57
2023-03-03T01:59:23.404Z,21.77
2023-03-03T02:01:50.652Z,22.23
2023-03-03T02:04:19.261Z,23.00
2023-03-03T02:06:55.501Z,26.33
2023-03-03T02:09:35.549Z,25.03
2023-03-03T02:12:08.700Z,26.13
2023-03-03T02:14:35.640Z,27.17
2023-03-03T02:17:02.739Z,25.57
2023-03-03T02:19:51.770Z,27.70
2023-03-03T02:22:29.958Z,29.73
2023-03-03T02:25:06.342Z,27.90
2023-03-03T02:27:34.470Z,29.53
2023-03-03T02:30:16.358Z,28.63
2023-03-03T02:32:43.304Z,25.13
2023-03-03T02:35:29.659Z,28.30
2023-03-03T02:38:30.950Z,28.53
2023-03-03T02:44:52.778Z,28.73
2023-03-03T02:47:20.192Z,27.53
2023-03-03T02:49:54.503Z,29.87
2023-03-03T02:52:30.225Z,27.50
2023-03-03T02:55:46.641Z,29.27
2023-03-03T02:58:21.622Z,31.37
2023-03-03T03:00:55.697Z,28.80
2023-03-03T03:06:36.561Z,31.00
2023-03-03T03:09:16.946Z,31.50
2023-03-03T03:11:47.532Z,34.90
2023-03-03T03:14:19.592Z,28.93
2023-03-03T03:16:49.326Z,29.63
2023-03-03T03:19:18.639Z,29.17
2023-03-03T03:21:48.459Z,30.17
2023-03-03T03:24:16.905Z,32.13
2023-03-03T03:26:43.948Z,29.53
2023-03-03T03:29:11.135Z,31.80
2023-03-03T03:31:38.308Z,29.97
2023-03-03T03:34:05.268Z,32.03
2023-03-03T03:36:32.074Z,32.27
2023-03-03T03:38:58.910Z,30.63
2023-03-03T03:41:26.774Z,29.37
2023-03-03T03:43:53.501Z,29.83
2023-03-03T03:46:20.256Z,32.47
2023-03-03T03:48:47.094Z,32.43
2023-03-03T03:51:14.066Z,31.33
2023-03-03T03:53:41.332Z,32.60
2023-03-03T03:56:09.364Z,31.67
2023-03-03T03:58:36.277Z,31.17
2023-03-03T04:01:06.986Z,35.27
2023-03-03T04:03:34.840Z,33.60
2023-03-03T04:06:01.602Z,31.57
2023-03-03T04:08:28.548Z,33.57
2023-03-03T04:10:55.778Z,31.87
2023-03-03T04:13:23.242Z,32.33
2023-03-03T04:15:49.986Z,33.40
2023-03-03T04:18:16.771Z,33.77
2023-03-03T04:20:43.593Z,33.60
2023-03-03T04:23:10.688Z,32.13
2023-03-03T04:25:37.456Z,32.60
2023-03-03T04:28:05.645Z,33.97
2023-03-03T04:30:33.011Z,32.67
2023-03-03T04:32:59.778Z,33.90
2023-03-03T04:35:26.594Z,34.47
2023-03-03T04:37:54.156Z,33.47
2023-03-03T04:40:21.086Z,35.53
2023-03-03T04:42:48.318Z,34.47
2023-03-03T04:45:15.032Z,33.10
2023-03-03T04:47:41.909Z,37.37
2023-03-03T04:50:10.721Z,33.03
2023-03-03T04:52:38.032Z,33.13
2023-03-03T04:55:05.488Z,37.53
2023-03-03T04:57:32.288Z,32.90
2023-03-03T04:59:59.082Z,37.00
2023-03-03T05:07:03.491Z,33.63
2023-03-03T05:10:36.885Z,33.40
2023-03-03T05:13:03.796Z,35.90
2023-03-03T05:15:31.094Z,42.50
2023-03-03T05:17:58.430Z,36.20
2023-03-03T05:20:26.409Z,35.13
2023-03-03T05:23:32.818Z,36.77
2023-03-03T05:26:26.577Z,34.63
2023-03-03T05:43:54.733Z,31.67
2023-03-03T05:46:29.464Z,33.03
2023-03-03T05:48:56.407Z,31.57
2023-03-03T05:51:23.374Z,29.57
2023-03-03T05:53:50.306Z,35.17
2023-03-03T05:56:17.244Z,32.13
2023-03-03T05:59:04.511Z,33.17
2023-03-03T06:01:35.057Z,32.90
2023-03-03T06:04:06.160Z,30.53
2023-03-03T06:06:37.157Z,32.37
2023-03-03T06:09:04.145Z,29.30
2023-03-03T06:11:43.811Z,29.17
2023-03-03T06:14:15.556Z,28.43
2023-03-03T06:20:51.989Z,27.93
2023-03-03T06:23:22.172Z,31.10
2023-03-03T06:25:58.734Z,30.37
2023-03-03T06:28:41.858Z,31.63
2023-03-03T06:31:08.715Z,33.83
2023-03-03T06:33:50.038Z,33.63
2023-03-03T06:36:18.077Z,33.27
2023-03-03T06:38:56.114Z,33.57
2023-03-03T06:41:33.424Z,33.67
2023-03-03T06:44:32.050Z,32.03
2023-03-03T06:54:57.892Z,30.37
2023-03-03T06:58:44.728Z,33.77
2023-03-03T07:01:22.560Z,32.57
2023-03-03T07:03:49.556Z,31.80
2023-03-03T07:06:38.183Z,27.47
2023-03-03T07:09:17.339Z,31.13
2023-03-03T07:11:46.487Z,30.90
2023-03-03T07:14:19.218Z,30.53
2023-03-03T07:16:46.489Z,30.57
2023-03-03T07:19:32.951Z,30.67
2023-03-03T07:22:27.857Z,28.57
2023-03-03T07:25:01.936Z,30.50
2023-03-03T07:27:31.377Z,28.60
2023-03-03T07:30:24.850Z,31.63
2023-03-03T07:32:56.514Z,30.67
2023-03-03T07:35:42.955Z,29.13
2023-03-03T07:38:46.215Z,29.03
2023-03-03T07:41:20.763Z,33.87
2023-03-03T07:44:05.541Z,32.93
2023-03-03T07:46:44.288Z,31.20
2023-03-03T07:49:37.683Z,31.63
2023-03-03T07:54:45.914Z,30.00
2023-03-03T07:57:24.896Z,29.20
2023-03-03T08:00:16.631Z,28.60
2023-03-03T08:03:03.236Z,31.00
2023-03-03T08:05:30.013Z,31.70
2023-03-03T08:08:31.109Z,29.13
2023-03-03T08:11:00.782Z,31.57
2023-03-03T08:13:33.067Z,30.00
2023-03-03T08:16:04.719Z,33.00
2023-03-03T08:18:47.684Z,34.43
2023-03-03T08:21:25.667Z,30.30
2023-03-03T08:23:53.706Z,30.83
2023-03-03T08:26:22.573Z,29.47
2023-03-03T08:28:50.640Z,31.30
2023-03-03T08:31:28.027Z,30.73
2023-03-03T08:34:01.590Z,27.87
2023-03-03T08:36:28.361Z,28.33
2023-03-03T08:38:55.500Z,28.67
2023-03-03T08:41:22.212Z,27.97
2023-03-03T08:43:48.985Z,26.27
2023-03-03T08:46:16.257Z,28.07
2023-03-03T08:48:43.063Z,28.60
2023-03-03T08:51:09.812Z,28.47
2023-03-03T08:53:38.144Z,29.53
2023-03-03T08:56:06.809Z,28.33
2023-03-03T08:58:35.993Z,30.30
2023-03-03T09:01:04.276Z,30.87
2023-03-03T09:03:31.511Z,29.60
2023-03-03T09:05:58.376Z,31.27
2023-03-03T09:08:25.147Z,28.47
2023-03-03T09:10:51.888Z,30.47
2023-03-03T09:13:19.973Z,28.73
2023-03-03T09:15:48.970Z,30.33
2023-03-03T09:18:22.768Z,25.87
2023-03-03T09:20:54.450Z,28.57
2023-03-03T09:23:24.108Z,25.50
2023-03-03T09:25:52.668Z,25.07
2023-03-03T09:28:30.464Z,25.70
2023-03-03T09:31:02.177Z,25.30
2023-03-03T09:33:42.897Z,26.60
2023-03-03T09:36:23.071Z,25.07
2023-03-03T09:38:50.223Z,24.77
2023-03-03T09:41:43.470Z,23.40
2023-03-03T09:45:06.887Z,22.70
2023-03-03T09:48:08.686Z,21.50
2023-03-03T09:50:50.726Z,23.03
2023-03-03T09:53:42.738Z,22.90
2023-03-03T09:56:19.352Z,20.83
2023-03-03T09:59:23.959Z,21.70
2023-03-03T10:01:54.117Z,23.27
2023-03-03T10:04:43.757Z,21.20
2023-03-03T10:07:54.279Z,23.10
2023-03-03T10:10:53.511Z,21.07
2023-03-03T10:14:03.796Z,23.13
2023-03-03T10:17:04.086Z,21.60
2023-03-03T10:19:54.037Z,24.17
2023-03-03T10:22:43.491Z,25.13
2023-03-03T10:25:53.879Z,23.53
2023-03-03T10:28:58.387Z,23.77
2023-03-03T10:32:12.664Z,29.27
2023-03-03T10:35:16.376Z,25.43
2023-03-03T10:38:14.618Z,25.27
2023-03-03T10:41:17.501Z,26.03
2023-03-03T10:44:25.682Z,27.07
2023-03-03T10:47:23.539Z,27.50
2023-03-03T10:50:11.282Z,26.07
2023-03-03T10:53:09.124Z,26.67
2023-03-03T10:56:35.381Z,25.73
2023-03-03T10:59:39.812Z,29.23
2023-03-03T11:02:22.877Z,29.93
2023-03-03T11:05:11.161Z,28.33
2023-03-03T11:07:54.895Z,28.93
2023-03-03T11:11:07.440Z,28.77
2023-03-03T11:13:49.468Z,31.57
2023-03-03T11:16:48.808Z,30.00
2023-03-03T11:19:44.125Z,30.50
2023-03-03T11:22:36.766Z,29.83
2023-03-03T11:25:18.177Z,33.57
2023-03-03T11:28:20.934Z,32.47
2023-03-03T11:31:13.987Z,29.60
2023-03-03T11:34:01.259Z,32.77
2023-03-03T11:36:36.957Z,31.17
2023-03-03T11:39:13.407Z,31.00
2023-03-03T11:41:52.228Z,31.67
2023-03-03T11:44:33.188Z,29.77
2023-03-03T11:47:05.526Z,30.47
2023-03-03T11:49:52.199Z,32.33
2023-03-03T11:52:53.207Z,33.60
2023-03-03T11:55:42.069Z,32.30
2023-03-03T11:58:20.442Z,32.90
2023-03-03T12:01:14.913Z,33.57
2023-03-03T12:04:00.716Z,37.30
2023-03-03T12:07:12.998Z,33.83
2023-03-03T12:10:19.056Z,37.17
2023-03-03T12:13:03.830Z,38.63
2023-03-03T12:16:04.597Z,38.73
2023-03-03T12:18:54.834Z,39.60
2023-03-03T12:22:05.933Z,36.97
2023-03-03T12:24:54.046Z,39.27
2023-03-03T12:27:43.045Z,37.00
2023-03-03T12:30:53.482Z,38.97
2023-03-03T12:34:26.228Z,40.87
2023-03-03T12:37:14.603Z,40.20
2023-03-03T12:39:56.710Z,40.53
2023-03-03T12:43:23.270Z,40.20
2023-03-03T12:46:03.851Z,41.93
2023-03-03T12:48:45.651Z,40.60
2023-03-03T12:51:48.212Z,39.20
2023-03-03T12:54:42.787Z,41.10
2023-03-03T12:57:38.229Z,39.73
2023-03-03T13:00:11.095Z,39.67
2023-03-03T13:02:49.923Z,40.13
2023-03-03T13:05:39.256Z,42.77
2023-03-03T13:08:31.865Z,41.00
2023-03-03T13:11:28.571Z,40.00
2023-03-03T13:14:23.019Z,41.57
2023-03-03T13:17:17.420Z,41.27
2023-03-03T13:20:11.922Z,39.63
2023-03-03T13:22:59.189Z,38.93
2023-03-03T13:25:59.212Z,37.77
2023-03-03T13:29:07.611Z,39.33
2023-03-03T13:31:40.668Z,38.83
2023-03-03T13:34:39.568Z,38.30
2023-03-03T13:37:15.511Z,42.00
2023-03-03T13:40:17.507Z,39.30
2023-03-03T13:42:50.687Z,38.43
2023-03-03T13:45:50.280Z,40.60
2023-03-03T13:48:38.577Z,40.57
2023-03-03T13:51:31.765Z,38.90
2023-03-03T13:54:35.338Z,39.13
2023-03-03T13:57:43.941Z,38.17
2023-03-03T14:00:27.925Z,39.23
2023-03-03T14:03:03.932Z,37.50
2023-03-03T14:05:39.226Z,39.00
2023-03-03T14:08:18.422Z,39.70
2023-03-03T14:11:10.741Z,40.90
2023-03-03T14:13:58.721Z,37.97
2023-03-03T14:16:57.441Z,41.00
2023-03-03T14:19:36.593Z,40.00
2023-03-03T14:22:24.030Z,38.20
2023-03-03T14:25:06.245Z,40.33
2023-03-03T14:27:47.680Z,42.57
2023-03-03T14:30:26.201Z,39.43
2023-03-03T14:33:09.771Z,40.17
2023-03-03T14:35:50.727Z,41.67
2023-03-03T14:38:35.965Z,42.60
2023-03-03T14:41:39.329Z,41.43
2023-03-03T14:44:36.442Z,42.37
2023-03-03T14:47:09.203Z,40.40
2023-03-03T14:49:38.552Z,44.37
2023-03-03T14:52:17.511Z,40.17
2023-03-03T14:54:54.526Z,40.40
2023-03-03T14:57:54.548Z,40.67
2023-03-03T15:00:24.144Z,42.77
2023-03-03T15:03:19.833Z,40.27
2023-03-03T15:05:58.059Z,37.20
2023-03-03T15:08:35.957Z,37.50
2023-03-03T15:11:25.551Z,39.10
2023-03-03T15:13:52.595Z,38.37
2023-03-03T15:16:30.101Z,33.47
2023-03-03T15:20:14.941Z,33.90
2023-03-03T15:23:19.580Z,32.47
2023-03-03T15:25:59.656Z,31.23
2023-03-03T15:28:55.726Z,26.73
2023-03-03T15:31:45.418Z,24.57
2023-03-03T15:34:44.001Z,21.00
2023-03-03T15:37:35.067Z,22.43
2023-03-03T15:40:28.808Z,22.47
2023-03-03T15:43:05.736Z,20.00
2023-03-03T15:45:47.622Z,19.97
2023-03-03T15:48:42.140Z,18.73
2023-03-03T15:52:02.482Z,18.63
2023-03-03T15:54:50.895Z,22.07
2023-03-03T15:57:52.635Z,21.97
2023-03-03T16:01:12.936Z,21.60
2023-03-03T16:03:47.178Z,21.67
2023-03-03T16:06:37.284Z,22.77
2023-03-03T16:09:57.589Z,26.80
2023-03-03T16:12:53.188Z,28.47
2023-03-03T16:15:34.804Z,29.23
2023-03-03T16:18:10.635Z,28.93
2023-03-03T16:20:53.878Z,30.37
2023-03-03T16:23:47.173Z,30.37
2023-03-03T16:26:32.503Z,29.80
2023-03-03T16:29:49.774Z,30.17
2023-03-03T16:32:46.364Z,30.93
2023-03-03T16:35:31.837Z,30.13
2023-03-03T16:38:06.460Z,29.47
2023-03-03T16:40:53.985Z,28.10
2023-03-03T16:43:45.313Z,31.67
2023-03-03T16:46:28.746Z,31.90
2023-03-03T16:49:27.123Z,28.83
2023-03-03T16:52:15.312Z,30.67
2023-03-03T16:54:54.981Z,31.97
2023-03-03T16:57:45.661Z,30.70
2023-03-03T17:00:20.933Z,30.03
2023-03-03T17:02:47.598Z,32.43
2023-03-03T17:06:00.457Z,33.07
2023-03-03T17:08:39.054Z,29.97
2023-03-03T17:11:23.285Z,30.07
2023-03-03T17:14:17.534Z,27.63
2023-03-03T17:17:12.139Z,28.20
2023-03-03T17:20:11.816Z,27.43
2023-03-03T17:23:00.117Z,27.00
2023-03-03T17:26:09.879Z,27.37
2023-03-03T17:29:08.875Z,24.73
2023-03-03T17:32:12.160Z,25.87
2023-03-03T17:35:07.048Z,28.57
2023-03-03T17:38:30.600Z,34.07
2023-03-03T17:41:11.014Z,28.43
2023-03-03T17:44:23.670Z,27.17
2023-03-03T17:47:00.333Z,27.50
2023-03-03T17:49:58.340Z,29.53
2023-03-03T17:52:43.109Z,25.50
2023-03-03T17:55:55.905Z,29.40
2023-03-03T18:00:56.247Z,24.77
2023-03-03T18:02:38.499Z,25.50
2023-03-03T18:05:31.157Z,25.47
2023-03-03T18:08:08.933Z,23.63
2023-03-03T18:11:18.988Z,23.70
2023-03-03T18:14:01.359Z,25.20
2023-03-03T18:16:39.771Z,27.77
2023-03-03T18:19:26.982Z,25.53
2023-03-03T18:22:13.966Z,25.67
2023-03-03T18:24:49.805Z,28.73
2023-03-03T18:27:25.387Z,24.77
2023-03-03T18:30:10.584Z,25.33
2023-03-03T18:33:08.605Z,24.63
2023-03-03T18:35:45.397Z,22.47
2023-03-03T18:38:29.993Z,21.27
2023-03-03T18:41:13.101Z,21.57
2023-03-03T18:46:56.758Z,20.23
2023-03-03T18:50:33.927Z,19.23
2023-03-03T18:53:15.750Z,22.77
2023-03-03T18:55:50.283Z,22.13
2023-03-03T18:58:17.005Z,21.50
2023-03-03T19:00:54.479Z,21.67
2023-03-03T19:03:45.429Z,22.60
2023-03-03T19:06:28.405Z,20.67
2023-03-03T19:08:58.415Z,22.93
2023-03-03T19:11:44.839Z,20.97
2023-03-03T19:14:27.771Z,20.97
2023-03-03T19:16:57.848Z,23.43
2023-03-03T19:19:34.935Z,23.67
2023-03-03T19:22:29.960Z,23.57
2023-03-03T19:25:08.656Z,21.50
2023-03-03T19:28:12.938Z,24.43
2023-03-03T19:30:45.819Z,21.37
2023-03-03T19:33:31.714Z,22.37
2023-03-03T19:36:44.860Z,21.93
2023-03-03T19:39:47.759Z,24.03
2023-03-03T19:42:29.050Z,24.70
2023-03-03T19:45:19.113Z,23.20
2023-03-03T19:48:22.751Z,23.90
2023-03-03T19:51:41.874Z,23.83
2023-03-03T19:54:38.445Z,24.80
2023-03-03T20:06:36.415Z,24.77
2023-03-03T21:08:54.171Z,27.43
2023-03-03T21:11:59.722Z,27.50
2023-03-03T21:15:50.359Z,28.93
2023-03-03T21:19:33.966Z,28.33
2023-03-03T21:22:12.134Z,27.83
2023-03-03T21:25:35.341Z,31.43
2023-03-03T21:28:45.375Z,30.47
2023-03-03T21:31:54.650Z,28.93
2023-03-03T21:34:47.149Z,29.23
2023-03-03T21:37:47.463Z,28.63
2023-03-03T21:40:27.470Z,29.57
2023-03-03T21:43:58.350Z,27.90
2023-03-03T21:46:46.814Z,28.43
2023-03-03T21:49:17.203Z,28.20
2023-03-03T21:51:59.846Z,27.10
2023-03-03T21:54:32.774Z,27.20
2023-03-03T21:57:01.971Z,46.53
2023-03-03T21:59:29.004Z,34.27
2023-03-03T22:02:10.552Z,51.17
2023-03-03T22:07:41.182Z,24.53
2023-03-03T22:10:18.666Z,27.13
2023-03-03T22:13:15.854Z,24.97
2023-03-03T22:15:45.202Z,26.40
2023-03-03T22:21:21.385Z,24.67
2023-03-03T22:23:48.368Z,22.77
2023-03-03T22:26:15.327Z,25.77
2023-03-03T22:28:44.260Z,33.27
2023-03-03T22:31:11.333Z,29.33
2023-03-03T22:33:38.098Z,35.33
2023-03-03T22:36:05.308Z,28.63
2023-03-03T22:38:32.170Z,25.60
2023-03-03T22:40:59.495Z,25.10
2023-03-03T22:43:27.466Z,26.93
2023-03-03T22:45:54.371Z,26.00
2023-03-03T22:48:23.107Z,24.77
2023-03-03T22:50:54.036Z,25.60
2023-03-03T22:53:21.983Z,24.50
2023-03-03T22:55:48.795Z,24.67
2023-03-03T22:58:21.232Z,22.73
2023-03-03T23:00:48.937Z,23.20
2023-03-03T23:03:16.495Z,33.43
2023-03-03T23:05:43.900Z,27.77
2023-03-03T23:08:15.084Z,26.70
2023-03-03T23:10:42.254Z,24.63
2023-03-03T23:13:10.416Z,26.97
2023-03-03T23:15:37.207Z,25.83
2023-03-03T23:18:04.282Z,21.63
2023-03-03T23:20:32.017Z,23.23
2023-03-03T23:22:59.331Z,23.33
2023-03-03T23:25:26.797Z,21.30
2023-03-03T23:27:53.616Z,20.40
2023-03-03T23:30:21.633Z,22.13
2023-03-03T23:32:49.161Z,25.37
2023-03-03T23:35:16.810Z,22.33
2023-03-03T23:37:44.875Z,21.23
2023-03-03T23:40:14.067Z,20.13
2023-03-03T23:42:40.982Z,21.53
2023-03-03T23:45:09.643Z,21.93
2023-03-03T23:47:36.906Z,21.30
2023-03-03T23:50:04.749Z,21.53
2023-03-03T23:52:31.562Z,21.93
2023-03-03T23:54:58.432Z,20.57
2023-03-03T23:57:25.303Z,21.43
2023-03-03T23:59:52.156Z,21.77
